Time;durP1;ratioP1;P1;durP2;ratioP2;P2;SDS_P1;SDS_P2;PMS_P1;PMS_P2;Temp;Humidity;BMP_temperature;BMP_pressure;BME280_temperature;BME280_humidity;BME280_pressure;Samples;Min_cycle;Max_cycle;Signal;HPM_P1;HPM_P2
2022/02/17 00:00:13;;;;;;;2.67;1.85;;;;;;;6.87;58.36;95561.91;1662022;86;25799;-87
2022/02/17 00:02:43;;;;;;;3.55;1.77;;;;;;;6.88;58.22;95558.96;1661988;85;25899;-88
2022/02/17 00:05:11;;;;;;;2.37;1.30;;;;;;;6.91;58.23;95571.63;1662233;86;26555;-87
2022/02/17 00:07:38;;;;;;;2.85;1.90;;;;;;;6.93;58.19;95557.45;1662986;86;25748;-88
2022/02/17 00:10:07;;;;;;;2.33;1.60;;;;;;;6.95;58.21;95558.05;1663035;86;27469;-87
2022/02/17 00:12:34;;;;;;;2.05;1.50;;;;;;;6.95;58.28;95544.11;1663135;85;26245;-87
2022/02/17 00:15:01;;;;;;;3.08;1.65;;;;;;;6.96;58.25;95557.00;1663097;86;25682;-87
2022/02/17 00:17:28;;;;;;;2.08;1.45;;;;;;;6.99;58.30;95545.81;1663176;85;25924;-90
2022/02/17 00:19:54;;;;;;;2.05;1.50;;;;;;;7.00;58.23;95543.42;1663187;86;26406;-87
2022/02/17 00:22:21;;;;;;;1.72;1.50;;;;;;;7.02;58.29;95535.41;1663096;86;28400;-89
2022/02/17 00:24:48;;;;;;;1.40;1.30;;;;;;;7.03;58.28;95524.15;1663102;85;25831;-89
2022/02/17 00:27:14;;;;;;;1.92;1.10;;;;;;;7.05;58.38;95518.03;1662919;86;25682;-88
2022/02/17 00:29:41;;;;;;;3.75;1.25;;;;;;;7.06;58.45;95492.84;1663217;86;26070;-88
2022/02/17 00:32:08;;;;;;;1.72;1.40;;;;;;;7.11;58.50;95504.51;1663256;86;25241;-87
2022/02/17 00:34:35;;;;;;;1.30;1.20;;;;;;;7.12;58.55;95488.70;1663145;85;27341;-90
2022/02/17 00:37:05;;;;;;;1.95;1.40;;;;;;;7.12;59.17;95472.61;1663014;86;25325;-88
2022/02/17 00:39:34;;;;;;;1.42;1.20;;;;;;;7.13;58.81;95453.27;1663165;86;25313;-90
2022/02/17 00:42:02;;;;;;;1.60;1.05;;;;;;;7.14;58.76;95440.96;1663111;86;26231;-88
2022/02/17 00:44:29;;;;;;;1.75;1.30;;;;;;;7.14;58.82;95426.73;1663146;86;25708;-90
2022/02/17 00:46:55;;;;;;;1.22;1.00;;;;;;;7.16;58.85;95420.60;1663096;86;27648;-88
2022/02/17 00:49:26;;;;;;;1.52;1.30;;;;;;;7.16;58.86;95391.09;1663018;85;25684;-89
2022/02/17 00:51:54;;;;;;;2.70;1.77;;;;;;;7.14;58.84;95390.51;1663248;85;26502;-87
2022/02/17 00:54:21;;;;;;;1.27;1.10;;;;;;;7.15;59.01;95398.32;1663107;86;26850;-89
2022/02/17 00:56:47;;;;;;;0.95;0.88;;;;;;;7.17;58.95;95399.42;1663219;85;25742;-88
2022/02/17 00:59:14;;;;;;;0.90;0.90;;;;;;;7.18;59.12;95392.48;1663168;86;27466;-92
2022/02/17 01:01:43;;;;;;;2.27;1.22;;;;;;;7.17;59.15;95356.50;1663063;86;25804;-92
2022/02/17 01:04:10;;;;;;;1.12;1.02;;;;;;;7.17;59.30;95354.63;1663034;85;25775;-92
2022/02/17 01:06:39;;;;;;;3.33;1.12;;;;;;;7.16;59.28;95348.16;1662267;85;25998;-88
2022/02/17 01:09:08;;;;;;;1.45;1.00;;;;;;;7.15;59.33;95352.70;1662314;85;25815;-91
2022/02/17 01:11:35;;;;;;;1.30;1.20;;;;;;;7.16;59.34;95354.34;1662202;85;27369;-90
2022/02/17 01:14:02;;;;;;;2.22;1.50;;;;;;;7.18;59.53;95368.86;1662167;86;26023;-88
2022/02/17 01:16:28;;;;;;;1.67;0.90;;;;;;;7.17;59.54;95360.52;1662242;85;26458;-89
2022/02/17 01:18:55;;;;;;;2.58;1.75;;;;;;;7.19;59.54;95349.03;1662311;86;25977;-91
2022/02/17 01:21:22;;;;;;;2.20;1.30;;;;;;;7.20;59.58;95354.69;1662297;86;25790;-88
2022/02/17 01:23:49;;;;;;;4.75;2.50;;;;;;;7.23;59.92;95316.64;1662074;85;27385;-86
2022/02/17 01:26:16;;;;;;;4.30;2.45;;;;;;;7.22;59.77;95306.96;1661816;86;25723;-89
2022/02/17 01:28:42;;;;;;;4.55;1.87;;;;;;;7.26;59.82;95312.11;1662176;86;25759;-88
2022/02/17 01:31:09;;;;;;;3.15;1.95;;;;;;;7.26;59.81;95305.41;1662243;85;26028;-88
2022/02/17 01:33:36;;;;;;;3.80;2.20;;;;;;;7.29;59.90;95358.61;1662270;86;25830;-87
2022/02/17 01:36:06;;;;;;;1.70;1.50;;;;;;;7.32;59.98;95379.60;1662150;86;28459;-90
2022/02/17 01:38:38;;;;;;;2.95;1.62;;;;;;;7.34;59.98;95388.76;1662104;85;25850;-89
2022/02/17 01:41:07;;;;;;;2.52;1.52;;;;;;;7.35;60.11;95372.42;1662502;86;31299;-88
2022/02/17 01:43:35;;;;;;;1.52;1.40;;;;;;;7.36;60.09;95400.89;1662206;86;26236;-88
2022/02/17 01:46:02;;;;;;;2.20;1.40;;;;;;;7.39;60.05;95422.39;1662277;86;25731;-87
2022/02/17 01:48:31;;;;;;;1.12;0.93;;;;;;;7.40;60.00;95419.47;1662188;86;27483;-87
2022/02/17 01:50:58;;;;;;;1.45;0.95;;;;;;;7.40;60.03;95429.39;1662054;86;25728;-90
2022/02/17 01:53:25;;;;;;;1.10;1.00;;;;;;;7.39;60.06;95432.59;1662222;85;25755;-87
2022/02/17 01:55:55;;;;;;;0.95;0.80;;;;;;;7.37;60.06;95403.02;1662113;86;26606;-90
2022/02/17 01:58:23;;;;;;;1.12;0.70;;;;;;;7.36;60.08;95388.81;1662222;86;25739;-89
2022/02/17 02:00:50;;;;;;;0.95;0.80;;;;;;;7.36;60.09;95362.50;1662096;85;27429;-89
2022/02/17 02:03:16;;;;;;;0.93;0.82;;;;;;;7.34;60.21;95365.95;1662170;86;25708;-91
2022/02/17 02:05:43;;;;;;;0.88;0.85;;;;;;;7.31;60.37;95373.13;1662204;86;25751;-92
2022/02/17 02:08:11;;;;;;;2.37;1.22;;;;;;;7.29;60.49;95368.00;1663251;86;25885;-87
2022/02/17 02:10:38;;;;;;;1.02;0.80;;;;;;;7.29;60.68;95346.53;1663184;85;26108;-89
2022/02/17 02:13:05;;;;;;;1.70;1.00;;;;;;;7.30;60.96;95329.37;1663085;86;28064;-89
2022/02/17 02:15:51;;;;;;;1.82;1.07;;;;;;;7.31;60.98;95318.92;1663091;86;25854;-90
2022/02/17 02:18:20;;;;;;;1.85;1.40;;;;;;;7.32;60.98;95300.95;1665416;85;25696;-90
2022/02/17 02:20:50;;;;;;;1.35;0.95;;;;;;;7.30;61.12;95299.85;1663133;86;26518;-88
2022/02/17 02:23:18;;;;;;;1.10;1.00;;;;;;;7.26;61.22;95298.70;1662908;85;25764;-92
2022/02/17 02:25:49;;;;;;;3.65;1.40;;;;;;;7.27;61.40;95276.70;1663065;86;28483;-88
2022/02/17 02:28:25;;;;;;;1.30;1.17;;;;;;;7.24;61.55;95275.34;1663066;86;25749;-87
2022/02/17 02:30:52;;;;;;;1.75;1.30;;;;;;;7.24;61.62;95280.70;1663210;86;25914;-92
2022/02/17 02:33:21;;;;;;;1.85;1.20;;;;;;;7.26;61.70;95254.42;1663074;85;25994;-87
2022/02/17 02:35:48;;;;;;;1.40;1.30;;;;;;;7.24;61.79;95244.48;1662911;86;25831;-87
2022/02/17 02:38:15;;;;;;;1.70;1.40;;;;;;;7.24;61.79;95274.00;1662891;86;28226;-88
2022/02/17 02:40:42;;;;;;;1.57;1.47;;;;;;;7.23;61.83;95271.03;1662994;86;25868;-88
2022/02/17 02:43:11;;;;;;;2.05;1.70;;;;;;;7.23;62.19;95265.66;1663206;86;25827;-88
2022/02/17 02:45:38;;;;;;;1.60;1.50;;;;;;;7.18;62.25;95258.33;1663063;86;27031;-88
2022/02/17 02:48:07;;;;;;;1.55;1.45;;;;;;;7.18;62.46;95253.48;1663009;86;25752;-88
2022/02/17 02:50:35;;;;;;;1.50;1.40;;;;;;;7.18;62.46;95273.08;1663068;86;28237;-86
2022/02/17 02:53:03;;;;;;;1.77;1.37;;;;;;;7.20;62.60;95258.09;1663074;86;25866;-89
2022/02/17 02:55:29;;;;;;;1.35;1.17;;;;;;;7.21;62.40;95250.33;1663082;86;25806;-86
2022/02/17 02:57:58;;;;;;;2.70;1.62;;;;;;;7.21;62.49;95222.16;1663031;86;27079;-87
2022/02/17 03:00:25;;;;;;;2.30;1.50;;;;;;;7.22;62.53;95222.44;1663058;86;25767;-88
2022/02/17 03:02:52;;;;;;;1.30;1.20;;;;;;;7.22;62.57;95217.07;1663021;86;27496;-88
2022/02/17 03:05:18;;;;;;;1.25;1.15;;;;;;;7.22;62.51;95219.23;1662984;86;25740;-86
2022/02/17 03:07:45;;;;;;;1.45;1.35;;;;;;;7.23;62.75;95193.21;1662003;86;25751;-86
2022/02/17 03:10:12;;;;;;;1.20;1.10;;;;;;;7.21;63.08;95180.03;1662216;86;26095;-86
2022/02/17 03:12:39;;;;;;;2.15;1.20;;;;;;;7.20;62.93;95191.01;1662132;86;26218;-86
2022/02/17 03:15:07;;;;;;;1.32;1.20;;;;;;;7.19;63.10;95186.17;1662084;86;27452;-86
2022/02/17 03:17:33;;;;;;;1.40;1.30;;;;;;;7.19;63.14;95190.72;1661970;86;25981;-88
2022/02/17 03:20:00;;;;;;;1.40;1.30;;;;;;;7.17;63.63;95180.75;1662138;86;25281;-85
2022/02/17 03:22:27;;;;;;;3.08;1.35;;;;;;;7.16;63.92;95163.84;1662094;86;26246;-85
2022/02/17 03:24:53;;;;;;;2.05;1.82;;;;;;;7.16;63.99;95165.71;1662230;86;25697;-86
2022/02/17 03:27:20;;;;;;;1.55;1.32;;;;;;;7.14;64.15;95161.11;1662048;86;28417;-86
2022/02/17 03:29:47;;;;;;;2.00;1.30;;;;;;;7.12;64.28;95161.38;1661700;86;25856;-86
2022/02/17 03:32:13;;;;;;;1.32;1.22;;;;;;;7.11;64.37;95145.53;1662132;86;25855;-87
2022/02/17 03:34:40;;;;;;;1.72;1.30;;;;;;;7.07;64.60;95148.41;1662026;86;26942;-85
2022/02/17 03:37:07;;;;;;;1.70;1.32;;;;;;;7.07;65.12;95155.11;1662070;86;25792;-84
2022/02/17 03:39:33;;;;;;;3.08;2.00;;;;;;;7.05;65.26;95158.56;1662151;86;28170;-85
2022/02/17 03:42:00;;;;;;;2.20;1.72;;;;;;;7.05;65.22;95142.47;1662050;86;26545;-86
2022/02/17 03:44:27;;;;;;;2.40;1.50;;;;;;;7.06;65.57;95136.86;1662145;86;25882;-86
2022/02/17 03:46:54;;;;;;;1.30;1.20;;;;;;;7.04;65.86;95111.33;1662089;86;25978;-90
2022/02/17 03:49:21;;;;;;;2.05;1.70;;;;;;;7.02;66.14;95120.95;1662357;86;25346;-90
2022/02/17 03:51:47;;;;;;;3.05;1.90;;;;;;;7.00;66.44;95126.30;1662314;86;27452;-88
2022/02/17 03:54:14;;;;;;;1.57;1.45;;;;;;;6.98;66.82;95114.48;1662393;86;25852;-88
2022/02/17 03:56:40;;;;;;;1.80;1.70;;;;;;;6.95;67.31;95100.20;1662302;86;25772;-90
2022/02/17 03:59:12;;;;;;;2.47;1.65;;;;;;;6.93;67.59;95100.16;1662411;86;25972;-89
2022/02/17 04:01:37;;;;;;;1.77;1.60;;;;;;;6.91;67.74;95100.92;1660541;86;25727;-93
2022/02/17 04:04:08;;;;;;;2.37;1.55;;;;;;;6.88;68.19;95085.60;1662155;86;27382;-85
2022/02/17 04:06:35;;;;;;;2.15;1.35;;;;;;;6.88;68.40;95088.84;1661031;85;25859;-88
2022/02/17 04:09:04;;;;;;;3.02;1.47;;;;;;;6.88;68.32;95086.95;1657781;86;25760;-86
2022/02/17 04:11:31;;;;;;;2.22;1.70;;;;;;;6.88;68.69;95079.45;1657873;86;25979;-91
2022/02/17 04:13:58;;;;;;;1.27;1.15;;;;;;;6.87;68.77;95067.11;1694447;83;25645;-87
2022/02/17 04:16:24;;;;;;;1.20;1.10;;;;;;;6.85;68.99;95051.78;1694189;84;28381;-89
2022/02/17 04:18:51;;;;;;;1.30;1.00;;;;;;;6.82;69.24;95031.63;1659536;86;25787;-91
2022/02/17 04:21:21;;;;;;;2.10;1.27;;;;;;;6.80;69.47;95028.90;1694546;84;25834;-87
2022/02/17 04:23:48;;;;;;;1.00;1.00;;;;;;;6.79;69.72;95031.30;1694378;84;26067;-92
2022/02/17 04:26:19;;;;;;;1.90;1.02;;;;;;;6.78;69.79;95015.73;1659917;86;25741;-92
2022/02/17 04:28:47;;;;;;;1.27;1.17;;;;;;;6.77;69.97;95020.81;1694332;84;28241;-87
2022/02/17 04:31:15;;;;;;;2.47;1.15;;;;;;;6.75;70.06;95009.55;1694359;84;25683;-86
2022/02/17 04:33:44;;;;;;;2.35;1.00;;;;;;;6.76;70.40;94991.03;1659838;86;25740;-89
2022/02/17 04:36:11;;;;;;;1.52;0.90;;;;;;;6.79;70.19;95005.30;1694265;84;25983;-89
2022/02/17 04:38:37;;;;;;;0.60;0.60;;;;;;;6.82;70.34;94980.67;1694358;84;26348;-87
2022/02/17 04:43:49;;;;;;;1.00;0.90;;;;;;;6.88;70.15;94980.77;1694349;83;25787;-88
2022/02/17 04:46:16;;;;;;;1.05;0.95;;;;;;;6.92;70.27;94968.46;1694367;84;25699;-87
2022/02/17 04:48:42;;;;;;;0.90;0.80;;;;;;;6.95;70.02;94957.25;1694371;84;25939;-86
2022/02/17 04:51:09;;;;;;;0.75;0.75;;;;;;;6.94;69.98;94971.19;1659754;86;25335;-88
2022/02/17 04:53:36;;;;;;;0.90;0.80;;;;;;;6.99;69.72;94977.16;1694329;83;27314;-87
2022/02/17 04:56:03;;;;;;;0.70;0.62;;;;;;;7.00;69.58;94970.21;1694206;83;25682;-88
2022/02/17 04:58:30;;;;;;;1.55;0.82;;;;;;;7.03;69.46;94969.69;1659763;86;25851;-88
2022/02/17 05:00:57;;;;;;;0.68;0.60;;;;;;;7.05;69.44;94981.52;1694338;84;25968;-87
2022/02/17 05:03:26;;;;;;;1.12;0.82;;;;;;;7.08;69.27;94971.11;1694235;83;25679;-89
2022/02/17 05:05:54;;;;;;;2.42;1.62;;;;;;;7.12;69.17;94980.83;1659837;86;27394;-88
2022/02/17 05:08:21;;;;;;;0.65;0.50;;;;;;;7.13;69.05;95003.35;1687839;83;26028;-87
2022/02/17 05:10:48;;;;;;;1.55;1.35;;;;;;;7.14;68.93;94995.59;1686383;85;25762;-91
2022/02/17 05:13:16;;;;;;;0.82;0.70;;;;;;;7.17;68.88;95019.25;1686533;85;26163;-87
2022/02/17 05:15:44;;;;;;;0.72;0.70;;;;;;;7.20;68.84;94989.77;1686700;84;26521;-87
2022/02/17 05:18:11;;;;;;;1.50;0.70;;;;;;;7.22;68.63;94972.91;1686438;85;27453;-88
2022/02/17 05:20:38;;;;;;;0.60;0.60;;;;;;;7.24;68.50;94965.42;1686495;85;26416;-87
2022/02/17 05:23:06;;;;;;;0.62;0.55;;;;;;;7.20;68.41;94952.21;1686437;85;25735;-91
2022/02/17 05:25:33;;;;;;;0.90;0.55;;;;;;;7.22;68.39;94947.41;1686289;85;26045;-89
2022/02/17 05:27:59;;;;;;;0.78;0.78;;;;;;;7.20;68.37;94954.89;1686590;85;25870;-89
2022/02/17 05:30:26;;;;;;;0.90;0.60;;;;;;;7.21;68.32;94969.94;1686512;85;27193;-88
2022/02/17 05:32:53;;;;;;;0.60;0.55;;;;;;;7.21;68.20;94959.20;1686489;85;25763;-89
2022/02/17 05:35:20;;;;;;;1.05;0.68;;;;;;;7.20;68.34;94956.23;1686222;85;25743;-88
2022/02/17 05:37:47;;;;;;;0.40;0.40;;;;;;;7.16;68.23;94959.94;1686622;84;25962;-89
2022/02/17 05:40:13;;;;;;;0.70;0.70;;;;;;;7.16;68.25;94943.03;1686567;85;25774;-88
2022/02/17 05:42:40;;;;;;;1.32;0.80;;;;;;;7.17;68.23;94946.00;1686455;84;28058;-88
2022/02/17 05:45:08;;;;;;;1.50;0.90;;;;;;;7.15;68.14;94934.17;1686500;85;25776;-89
2022/02/17 05:47:35;;;;;;;1.07;0.88;;;;;;;7.16;68.19;94924.25;1686572;85;26201;-90
2022/02/17 05:50:01;;;;;;;3.72;2.20;;;;;;;7.15;68.20;94923.44;1686609;85;25981;-86
2022/02/17 05:52:28;;;;;;;1.92;1.00;;;;;;;7.16;68.21;94918.88;1686592;85;25843;-86
2022/02/17 05:54:55;;;;;;;2.00;1.50;;;;;;;7.17;68.20;94909.78;1686475;85;27388;-92
2022/02/17 05:57:21;;;;;;;2.80;2.08;;;;;;;7.18;68.16;94920.79;1686374;84;26336;-86
2022/02/17 05:59:48;;;;;;;1.62;0.90;;;;;;;7.17;68.13;94921.32;1686505;85;25740;-91
2022/02/17 06:02:15;;;;;;;1.80;0.82;;;;;;;7.20;68.31;94923.52;1686569;84;26032;-89
2022/02/17 06:04:43;;;;;;;1.25;0.90;;;;;;;7.24;68.27;94931.87;1686665;85;26535;-90
2022/02/17 06:07:13;;;;;;;2.05;1.05;;;;;;;7.26;68.30;94930.26;1686314;85;28327;-89
2022/02/17 06:09:41;;;;;;;1.40;0.95;;;;;;;7.28;68.31;94923.59;1686893;85;25811;-87
2022/02/17 06:12:08;;;;;;;1.47;0.90;;;;;;;7.30;68.22;94932.73;1687027;85;25980;-87
2022/02/17 06:14:35;;;;;;;0.80;0.72;;;;;;;7.32;68.22;94937.33;1686997;85;25963;-90
2022/02/17 06:17:02;;;;;;;1.07;0.90;;;;;;;7.33;68.14;94924.19;1687014;85;25672;-87
2022/02/17 06:19:29;;;;;;;1.12;0.82;;;;;;;7.35;68.14;94918.86;1687127;84;27378;-90
2022/02/17 06:21:56;;;;;;;1.55;1.12;;;;;;;7.36;68.14;94932.56;1686909;85;25797;-87
2022/02/17 06:24:22;;;;;;;1.30;0.95;;;;;;;7.36;68.20;94929.88;1687053;84;26246;-87
2022/02/17 06:26:49;;;;;;;1.40;1.17;;;;;;;7.38;68.22;94925.05;1686928;85;26051;-87
2022/02/17 06:29:16;;;;;;;1.82;0.75;;;;;;;7.41;68.19;94910.31;1687072;84;25756;-86
2022/02/17 06:31:44;;;;;;;1.57;1.02;;;;;;;7.41;68.18;94900.39;1686959;84;27349;-87
2022/02/17 06:34:12;;;;;;;1.15;0.90;;;;;;;7.43;68.14;94899.61;1686909;84;25264;-89
2022/02/17 06:36:39;;;;;;;2.58;1.25;;;;;;;7.45;68.18;94897.49;1686925;85;25743;-87
2022/02/17 06:39:06;;;;;;;1.32;0.90;;;;;;;7.46;68.23;94884.36;1687052;85;25979;-88
2022/02/17 06:41:32;;;;;;;0.85;0.75;;;;;;;7.48;68.29;94892.97;1686911;85;25779;-89
2022/02/17 06:43:59;;;;;;;1.05;0.70;;;;;;;7.49;68.35;94907.98;1686944;85;27347;-89
2022/02/17 06:46:25;;;;;;;1.77;1.30;;;;;;;7.52;68.41;94879.30;1686929;85;25758;-87
2022/02/17 06:48:52;;;;;;;0.88;0.68;;;;;;;7.55;68.50;94874.77;1686936;85;25768;-89
2022/02/17 06:51:19;;;;;;;5.97;3.67;;;;;;;7.58;68.49;94870.78;1687069;85;26131;-86
2022/02/17 06:53:46;;;;;;;4.45;2.35;;;;;;;7.61;68.55;94857.39;1687050;84;25723;-88
2022/02/17 06:56:13;;;;;;;2.55;1.80;;;;;;;7.63;68.53;94871.34;1687079;85;27617;-87
2022/02/17 06:58:40;;;;;;;6.03;2.75;;;;;;;7.65;68.57;94865.19;1686837;84;25747;-89
2022/02/17 07:01:06;;;;;;;4.67;2.75;;;;;;;7.66;68.69;94877.55;1686991;84;25777;-85
2022/02/17 07:03:33;;;;;;;3.47;1.62;;;;;;;7.65;68.88;94839.69;1686747;85;26055;-89
2022/02/17 07:06:01;;;;;;;4.55;2.42;;;;;;;7.65;69.00;94847.20;1687035;85;25824;-88
2022/02/17 07:08:28;;;;;;;2.58;1.57;;;;;;;7.63;69.17;94870.00;1686549;85;27389;-88
2022/02/17 07:10:54;;;;;;;1.47;1.10;;;;;;;7.61;69.34;94858.16;1686416;84;25902;-90
2022/02/17 07:13:27;;;;;;;2.15;1.40;;;;;;;7.61;69.50;94856.05;1686452;85;25822;-86
2022/02/17 07:15:55;;;;;;;2.65;1.30;;;;;;;7.61;69.68;94845.30;1686435;84;26894;-89
2022/02/17 07:18:23;;;;;;;5.95;2.50;;;;;;;7.61;69.93;94826.52;1686737;84;25751;-86
2022/02/17 07:20:51;;;;;;;8.98;3.58;;;;;;;7.58;69.92;94819.23;1686590;85;28235;-89
2022/02/17 07:23:20;;;;;;;8.03;3.25;;;;;;;7.58;69.97;94811.72;1686630;84;25830;-88
2022/02/17 07:25:47;;;;;;;5.65;2.37;;;;;;;7.56;70.06;94803.91;1686445;85;25686;-86
2022/02/17 07:28:15;;;;;;;3.67;1.60;;;;;;;7.54;70.28;94800.67;1686648;85;25977;-89
2022/02/17 07:30:43;;;;;;;2.98;1.10;;;;;;;7.57;70.56;94807.41;1686695;84;25852;-88
2022/02/17 07:33:09;;;;;;;1.27;0.90;;;;;;;7.62;70.73;94813.34;1686629;85;27456;-89
2022/02/17 07:35:36;;;;;;;0.80;0.62;;;;;;;7.68;70.70;94815.02;1686517;85;25787;-88
2022/02/17 07:38:03;;;;;;;1.80;1.00;;;;;;;7.74;70.69;94809.95;1686628;85;25815;-92
2022/02/17 07:40:30;;;;;;;1.42;0.90;;;;;;;7.75;70.64;94780.69;1686700;84;25974;-89
2022/02/17 07:42:56;;;;;;;0.85;0.70;;;;;;;7.77;70.67;94790.11;1686720;84;25679;-90
2022/02/17 07:45:23;;;;;;;1.40;0.88;;;;;;;7.80;70.72;94752.55;1686655;85;27336;-87
2022/02/17 07:47:52;;;;;;;0.90;0.70;;;;;;;7.85;70.81;94724.36;1686484;84;25765;-88
2022/02/17 07:50:23;;;;;;;1.40;0.70;;;;;;;7.91;70.76;94732.20;1686745;85;25684;-85
2022/02/17 07:52:49;;;;;;;1.95;1.00;;;;;;;7.96;70.71;94722.04;1686642;85;26859;-86
2022/02/17 07:55:16;;;;;;;2.37;1.15;;;;;;;8.07;70.74;94733.11;1686694;85;26370;-88
2022/02/17 07:57:43;;;;;;;1.47;0.70;;;;;;;8.25;70.79;94734.00;1686659;85;27425;-87
2022/02/17 08:00:14;;;;;;;1.90;1.02;;;;;;;8.44;70.63;94706.70;1686522;84;25818;-90
2022/02/17 08:02:42;;;;;;;1.27;0.80;;;;;;;8.55;70.36;94701.64;1686665;85;25487;-89
2022/02/17 08:05:10;;;;;;;2.12;1.25;;;;;;;8.67;70.20;94698.18;1686525;85;26871;-88
2022/02/17 08:07:38;;;;;;;1.22;0.90;;;;;;;8.72;69.97;94687.42;1686674;85;25742;-88
2022/02/17 08:10:06;;;;;;;1.62;1.02;;;;;;;8.80;69.80;94690.95;1686316;85;27684;-89
2022/02/17 08:12:35;;;;;;;2.67;1.10;;;;;;;8.94;69.77;94702.79;1686557;85;25758;-87
2022/02/17 08:15:01;;;;;;;3.35;1.47;;;;;;;9.05;69.48;94723.02;1686791;84;26324;-87
2022/02/17 08:17:28;;;;;;;1.30;1.00;;;;;;;9.08;69.26;94729.19;1686616;84;26043;-89
2022/02/17 08:19:54;;;;;;;2.35;1.05;;;;;;;9.05;69.16;94707.67;1686575;84;25847;-89
2022/02/17 08:22:21;;;;;;;3.25;1.80;;;;;;;9.07;69.10;94759.86;1686364;84;27425;-86
2022/02/17 08:24:48;;;;;;;1.30;0.90;;;;;;;9.01;69.00;94699.33;1686575;84;26247;-86
2022/02/17 08:27:14;;;;;;;0.60;0.60;;;;;;;8.96;68.98;94712.75;1686490;85;25729;-88
2022/02/17 08:29:42;;;;;;;2.10;1.25;;;;;;;8.89;68.98;94702.80;1686649;84;26792;-90
2022/02/17 08:32:09;;;;;;;1.65;1.10;;;;;;;8.83;69.05;94722.67;1686520;84;25685;-88
2022/02/17 08:49:58;;;;;;;2.50;0.80;;;;;;;7.00;67.68;95040.48;1882703;75;25576;-82
2022/02/17 08:52:25;;;;;;;3.30;1.07;;;;;;;6.59;68.25;95057.27;1822179;77;25833;-92
2022/02/17 08:54:52;;;;;;;1.00;0.50;;;;;;;6.46;68.63;95077.16;1822541;77;28153;-85
2022/02/17 08:57:19;;;;;;;1.17;0.70;;;;;;;6.29;68.80;95079.51;1822407;77;25809;-81
2022/02/17 08:59:46;;;;;;;1.80;0.70;;;;;;;6.11;68.77;95087.23;1822527;77;25554;-93
2022/02/17 09:02:12;;;;;;;2.22;1.40;;;;;;;5.87;68.82;95093.70;1822554;77;25637;-85
2022/02/17 09:04:39;;;;;;;4.33;1.50;;;;;;;5.61;69.30;95086.50;1822555;77;25753;-93
2022/02/17 09:07:06;;;;;;;2.58;1.02;;;;;;;5.47;69.69;95085.13;1822551;77;27588;-95
2022/02/17 09:09:32;;;;;;;2.22;1.22;;;;;;;5.41;70.02;95100.28;1822328;77;25699;-85
2022/02/17 09:11:59;;;;;;;2.25;1.10;;;;;;;5.37;70.07;95100.45;1822607;77;25678;-94
2022/02/17 09:14:26;;;;;;;3.40;2.30;;;;;;;5.36;70.28;95092.13;1822510;77;25763;-95
2022/02/17 09:16:53;;;;;;;6.75;4.58;;;;;;;5.29;70.46;95086.11;1822548;77;25649;-86
2022/02/17 09:19:20;;;;;;;10.70;5.45;;;;;;;5.20;70.28;95096.85;1822533;77;27356;-89
2022/02/17 09:21:46;;;;;;;31.27;14.65;;;;;;;5.08;70.55;95106.73;1822615;77;25740;-92
2022/02/17 09:24:13;;;;;;;66.12;30.15;;;;;;;5.01;70.55;95132.79;1822554;77;25936;-90
2022/02/17 09:26:40;;;;;;;15.45;7.83;;;;;;;4.94;70.69;95156.98;1822524;77;25250;-95
2022/02/17 09:29:08;;;;;;;11.75;5.70;;;;;;;4.91;70.63;95165.97;1822131;77;25676;-87
2022/02/17 09:31:35;;;;;;;11.22;4.42;;;;;;;4.82;70.71;95168.70;1822230;77;27398;-94
2022/02/17 09:34:02;;;;;;;30.23;12.73;;;;;;;4.76;70.60;95172.27;1822412;77;25751;-85
2022/02/17 09:36:29;;;;;;;30.27;13.62;;;;;;;4.76;70.73;95161.06;1822595;77;25770;-93
2022/02/17 09:38:56;;;;;;;9.50;5.03;;;;;;;4.71;70.80;95156.91;1822530;77;25774;-88
2022/02/17 09:41:23;;;;;;;2.87;1.35;;;;;;;4.71;70.76;95118.98;1822587;77;25736;-94
2022/02/17 09:43:52;;;;;;;1.12;1.00;;;;;;;4.68;70.56;95146.19;1822550;77;28457;-91
2022/02/17 09:46:21;;;;;;;1.02;0.50;;;;;;;4.62;70.69;95149.75;1822363;78;25516;-91
2022/02/17 09:49:01;;;;;;;0.50;0.40;;;;;;;4.60;70.45;95158.52;1822363;77;25633;-84
2022/02/17 09:51:31;;;;;;;1.25;0.68;;;;;;;4.51;70.34;95171.92;1822573;77;25623;-91
2022/02/17 09:53:59;;;;;;;1.17;0.90;;;;;;;4.38;70.42;95177.45;1822730;77;25750;-84
2022/02/17 09:56:26;;;;;;;1.92;1.30;;;;;;;4.33;70.64;95180.00;1804389;77;27576;-88
2022/02/17 09:58:54;;;;;;;4.15;2.55;;;;;;;4.25;70.57;95158.92;1818000;77;25779;-87
2022/02/17 10:18:18;;;;;;;3.27;1.80;;;;;;;4.39;71.28;95149.70;1867003;76;25282;-81
2022/02/17 10:21:03;;;;;;;5.55;2.20;;;;;;;4.26;71.60;95127.17;1756639;81;25644;-80
2022/02/17 10:23:34;;;;;;;3.80;2.22;;;;;;;4.17;71.75;95115.20;1756906;80;27360;-87
2022/02/17 10:26:08;;;;;;;8.93;3.15;;;;;;;4.07;71.72;95101.58;1756841;80;25766;-81
2022/02/17 10:28:43;;;;;;;4.83;2.22;;;;;;;4.02;71.88;95086.75;1755025;81;25701;-86
2022/02/17 10:31:26;;;;;;;6.17;2.70;;;;;;;3.97;72.01;95084.27;1756989;80;25306;-84
2022/02/17 10:33:54;;;;;;;6.87;3.77;;;;;;;3.95;72.12;95082.34;1756905;81;25475;-81
2022/02/17 10:36:42;;;;;;;5.30;2.83;;;;;;;3.91;72.15;95093.68;1756890;81;27369;-81
2022/02/17 10:39:22;;;;;;;6.75;2.47;;;;;;;3.94;72.50;95101.24;1756351;80;25799;-79
2022/02/17 10:41:58;;;;;;;4.37;2.85;;;;;;;3.99;72.70;95096.02;1756526;80;25813;-86
2022/02/17 10:44:33;;;;;;;5.00;3.55;;;;;;;4.08;72.81;95085.86;1756859;81;25891;-83
2022/02/17 10:47:20;;;;;;;5.50;3.58;;;;;;;4.15;72.96;95085.23;1756925;80;25752;-87
2022/02/17 10:49:53;;;;;;;6.45;4.20;;;;;;;4.21;72.93;95083.00;1756860;81;28058;-82
2022/02/17 10:52:36;;;;;;;6.87;3.17;;;;;;;4.24;72.98;95062.50;1756777;81;25798;-87
2022/02/17 10:55:15;;;;;;;6.40;3.30;;;;;;;4.29;72.92;95057.30;1756903;81;25820;-84
2022/02/17 10:57:42;;;;;;;7.05;3.70;;;;;;;4.36;72.96;95059.33;1756643;81;25804;-87
2022/02/17 11:00:19;;;;;;;12.13;7.85;;;;;;;4.43;72.96;95079.27;1756832;81;25955;-85
2022/02/17 11:02:47;;;;;;;15.60;8.50;;;;;;;4.52;73.10;95092.58;1753954;80;28396;-86
2022/02/17 11:05:16;;;;;;;5.80;3.40;;;;;;;4.60;73.26;95090.38;1756797;80;25665;-86
2022/02/17 11:07:46;;;;;;;6.87;3.47;;;;;;;4.64;72.68;95096.91;1756790;81;25804;-88
2022/02/17 11:10:13;;;;;;;6.17;3.47;;;;;;;4.66;72.71;95092.67;1756860;80;25772;-83
2022/02/17 11:12:42;;;;;;;5.92;3.50;;;;;;;4.69;72.55;95097.04;1757015;81;25805;-86
2022/02/17 11:15:09;;;;;;;6.00;3.40;;;;;;;4.71;72.68;95096.26;1756860;80;27378;-86
2022/02/17 11:17:39;;;;;;;4.85;3.12;;;;;;;4.77;72.76;95081.70;1756497;80;25689;-82
2022/02/17 11:20:14;;;;;;;5.22;2.98;;;;;;;4.82;72.67;95060.45;1756648;80;25824;-87
2022/02/17 11:22:42;;;;;;;6.10;3.83;;;;;;;4.88;72.85;95052.81;1756345;80;25280;-85
2022/02/17 11:25:13;;;;;;;8.60;4.35;;;;;;;4.96;72.94;95049.25;1756969;81;25720;-82
2022/02/17 11:28:01;;;;;;;51.05;23.35;;;;;;;5.04;73.03;95034.22;1756751;81;27368;-85
2022/02/17 11:30:31;;;;;;;30.55;14.33;;;;;;;5.12;72.93;95031.70;1786401;80;25623;-86
2022/02/17 11:33:27;;;;;;;30.70;13.32;;;;;;;5.15;72.80;95029.89;1787256;79;25805;-84
2022/02/17 11:36:24;;;;;;;30.62;12.73;;;;;;;5.15;72.80;95012.52;1770429;80;25650;-87
2022/02/17 11:38:58;;;;;;;13.98;7.20;;;;;;;5.17;72.65;95018.45;1787661;79;25823;-83
2022/02/17 11:41:33;;;;;;;21.00;10.38;;;;;;;5.17;72.72;95020.30;1770743;80;27364;-83
2022/02/17 11:44:18;;;;;;;27.82;12.78;;;;;;;5.17;72.85;95022.98;1787375;79;26218;-84
2022/02/17 11:46:51;;;;;;;16.10;8.18;;;;;;;5.19;73.08;95020.36;1787765;79;26295;-84
2022/02/17 11:49:36;;;;;;;32.08;17.00;;;;;;;5.23;72.98;95005.45;1776488;80;25907;-84
2022/02/17 11:52:19;;;;;;;20.15;10.18;;;;;;;5.30;73.17;95008.83;1776698;80;25805;-84
2022/02/17 11:55:17;;;;;;;15.93;8.38;;;;;;;5.36;72.96;95019.91;1775926;80;27461;-85
2022/02/17 11:57:44;;;;;;;8.13;4.53;;;;;;;5.41;73.08;94993.79;1776416;79;25709;-83
2022/02/17 12:00:25;;;;;;;8.50;5.40;;;;;;;5.50;73.07;94995.55;1776480;80;25756;-84
2022/02/17 12:02:55;;;;;;;7.95;4.87;;;;;;;5.73;73.08;94998.13;1776249;80;25748;-80
2022/02/17 12:05:21;;;;;;;8.10;3.75;;;;;;;6.04;73.07;95002.20;1776440;80;25505;-83
2022/02/17 12:07:49;;;;;;;10.13;4.33;;;;;;;6.28;73.04;95006.91;1776454;80;27418;-83
2022/02/17 12:10:35;;;;;;;8.13;4.78;;;;;;;6.45;72.86;95003.70;1755713;81;25733;-83
2022/02/17 12:13:09;;;;;;;8.00;3.50;;;;;;;6.70;72.91;95021.52;1756304;81;25724;-80
2022/02/17 12:15:34;;;;;;;5.65;3.40;;;;;;;6.88;72.40;95013.20;1755991;81;26168;-83
2022/02/17 12:18:01;;;;;;;5.37;3.22;;;;;;;6.92;72.04;95020.76;1756034;80;25752;-81
2022/02/17 12:20:29;;;;;;;5.22;3.05;;;;;;;6.93;71.89;95030.43;1756391;81;27380;-83
2022/02/17 12:23:07;;;;;;;6.70;3.65;;;;;;;6.94;71.70;95017.30;1756268;81;25646;-84